Time;durP1;ratioP1;P1;durP2;ratioP2;P2;SDS_P1;SDS_P2;PMS_P1;PMS_P2;Temp;Humidity;BMP_temperature;BMP_pressure;BME280_temperature;BME280_humidity;BME280_pressure;Samples;Min_cycle;Max_cycle;Signal;HPM_P1;HPM_P2
2023/04/12 00:00:16;;;;;;;;;4.00;4.00;;;;;;;;5076727;27;45390;-59
2023/04/12 00:02:43;;;;;;;;;8.00;5.00;;;;;;;;5074140;27;45397;-59
2023/04/12 00:05:10;;;;;;;;;4.00;4.00;;;;;;;;5076307;27;45461;-59
2023/04/12 00:07:37;;;;;;;;;3.67;3.33;;;;;;;;5075859;27;45468;-59
2023/04/12 00:10:02;;;;;;;;;3.33;2.33;;;;;;;;5076034;27;45472;-59
2023/04/12 00:12:27;;;;;;;;;7.00;4.00;;;;;;;;5074829;27;45622;-59
2023/04/12 00:14:52;;;;;;;;;5.33;5.33;;;;;;;;5074130;27;47687;-59
2023/04/12 00:17:18;;;;;;;;;4.67;3.33;;;;;;;;5075583;27;45471;-59
2023/04/12 00:19:43;;;;;;;;;5.00;5.00;;;;;;;;5074680;27;45476;-60
2023/04/12 00:22:09;;;;;;;;;5.00;3.33;;;;;;;;5074783;28;45530;-58
2023/04/12 00:24:34;;;;;;;;;3.00;3.00;;;;;;;;5076010;28;45944;-59
2023/04/12 00:27:04;;;;;;;;;6.00;5.00;;;;;;;;5075649;27;45531;-59
2023/04/12 00:29:30;;;;;;;;;3.67;3.67;;;;;;;;5075918;27;45612;-59
2023/04/12 00:31:56;;;;;;;;;3.00;3.00;;;;;;;;5074544;27;45562;-59
2023/04/12 00:34:21;;;;;;;;;5.00;3.67;;;;;;;;5075600;27;47598;-58
2023/04/12 00:36:46;;;;;;;;;8.00;8.00;;;;;;;;5073956;27;45531;-59
2023/04/12 00:39:11;;;;;;;;;8.67;6.67;;;;;;;;5075945;27;45561;-59
2023/04/12 00:41:36;;;;;;;;;6.67;6.67;;;;;;;;5071583;27;45630;-59
2023/04/12 00:44:02;;;;;;;;;8.00;8.00;;;;;;;;5073047;27;46242;-59
2023/04/12 00:46:28;;;;;;;;;10.67;8.00;;;;;;;;5074295;27;45437;-59
2023/04/12 00:48:53;;;;;;;;;10.00;8.00;;;;;;;;5075653;27;45468;-59
2023/04/12 00:51:21;;;;;;;;;8.00;7.00;;;;;;;;5073870;27;45496;-59
2023/04/12 00:53:46;;;;;;;;;7.00;7.00;;;;;;;;5068090;27;46137;-59
2023/04/12 00:56:12;;;;;;;;;5.67;5.33;;;;;;;;5075082;27;45553;-59
2023/04/12 00:58:37;;;;;;;;;4.67;3.67;;;;;;;;5075232;27;45476;-59
2023/04/12 01:01:02;;;;;;;;;5.00;5.00;;;;;;;;5075076;27;45402;-59
2023/04/12 01:03:29;;;;;;;;;5.67;4.33;;;;;;;;5074305;27;45616;-59
2023/04/12 01:06:13;;;;;;;;;4.00;4.00;;;;;;;;5073798;27;45593;-59
2023/04/12 01:08:39;;;;;;;;;4.00;4.00;;;;;;;;5062557;28;45440;-59
2023/04/12 01:11:11;;;;;;;;;3.00;2.00;;;;;;;;5074235;27;45641;-59
2023/04/12 01:13:52;;;;;;;;;3.00;2.00;;;;;;;;5066336;28;45460;-59
2023/04/12 01:16:29;;;;;;;;;5.67;3.33;;;;;;;;5074586;27;45483;-59
2023/04/12 01:18:58;;;;;;;;;4.67;3.00;;;;;;;;5072801;27;45453;-59
2023/04/12 01:21:30;;;;;;;;;4.67;4.00;;;;;;;;5070744;27;45540;-59
2023/04/12 01:24:14;;;;;;;;;5.33;4.00;;;;;;;;5073825;28;45498;-59
2023/04/12 01:26:43;;;;;;;;;4.33;3.33;;;;;;;;5074371;27;45382;-60
2023/04/12 01:29:10;;;;;;;;;2.33;2.33;;;;;;;;5070455;28;45517;-58
2023/04/12 01:31:36;;;;;;;;;3.67;3.00;;;;;;;;5074114;27;45367;-59
2023/04/12 01:34:02;;;;;;;;;4.33;4.33;;;;;;;;5074550;27;46352;-59
2023/04/12 01:36:28;;;;;;;;;2.00;2.00;;;;;;;;5074334;27;45589;-59
2023/04/12 01:38:55;;;;;;;;;3.00;3.00;;;;;;;;5069796;27;45512;-59
2023/04/12 01:41:20;;;;;;;;;7.00;4.67;;;;;;;;5074673;28;45477;-59
2023/04/12 01:43:46;;;;;;;;;5.00;5.00;;;;;;;;5074479;28;45978;-59
2023/04/12 01:46:13;;;;;;;;;3.00;3.00;;;;;;;;5074466;27;45576;-59
2023/04/12 01:48:39;;;;;;;;;3.00;3.00;;;;;;;;5073715;27;45521;-59
2023/04/12 01:51:04;;;;;;;;;4.67;4.00;;;;;;;;5073473;27;45626;-60
2023/04/12 01:53:47;;;;;;;;;3.33;3.33;;;;;;;;5074617;27;45898;-58
2023/04/12 01:56:14;;;;;;;;;4.00;3.00;;;;;;;;5074394;27;45498;-59
2023/04/12 01:58:41;;;;;;;;;3.33;3.00;;;;;;;;5073428;28;45495;-59
2023/04/12 02:01:07;;;;;;;;;4.67;4.67;;;;;;;;5073407;27;45601;-59
2023/04/12 02:03:33;;;;;;;;;6.00;4.00;;;;;;;;5073961;27;45805;-59
2023/04/12 02:05:58;;;;;;;;;5.33;4.33;;;;;;;;5072940;27;45442;-59
2023/04/12 02:08:24;;;;;;;;;4.00;3.67;;;;;;;;5073293;27;45470;-59
2023/04/12 02:10:50;;;;;;;;;2.67;2.67;;;;;;;;5074523;28;45543;-59
2023/04/12 02:13:16;;;;;;;;;3.00;3.00;;;;;;;;5074029;27;45545;-59
2023/04/12 02:15:42;;;;;;;;;4.33;3.00;;;;;;;;5074233;27;46074;-59
2023/04/12 02:18:08;;;;;;;;;3.33;3.00;;;;;;;;5072005;27;45565;-59
2023/04/12 02:20:34;;;;;;;;;2.00;2.00;;;;;;;;5073845;28;45492;-58
2023/04/12 02:22:59;;;;;;;;;2.67;2.67;;;;;;;;5074123;28;45990;-59
2023/04/12 02:25:26;;;;;;;;;5.00;5.00;;;;;;;;5073938;27;45405;-59
2023/04/12 02:27:51;;;;;;;;;4.00;2.33;;;;;;;;5071024;27;45552;-59
2023/04/12 02:30:16;;;;;;;;;2.67;2.67;;;;;;;;5073774;27;45524;-59
2023/04/12 02:32:44;;;;;;;;;5.00;2.00;;;;;;;;5072986;27;46235;-59
2023/04/12 02:35:13;;;;;;;;;3.00;3.00;;;;;;;;5072764;27;45578;-59
2023/04/12 02:37:38;;;;;;;;;4.00;4.00;;;;;;;;5071274;27;45551;-59
2023/04/12 02:40:05;;;;;;;;;3.00;3.00;;;;;;;;5073515;27;45511;-59
2023/04/12 02:42:30;;;;;;;;;3.00;2.00;;;;;;;;5076502;27;45500;-59
2023/04/12 02:44:56;;;;;;;;;3.00;3.00;;;;;;;;5074896;27;45470;-59
2023/04/12 02:47:21;;;;;;;;;2.00;2.00;;;;;;;;5077469;27;45548;-59
2023/04/12 02:49:46;;;;;;;;;2.33;2.33;;;;;;;;5072456;27;45475;-59
2023/04/12 02:52:11;;;;;;;;;4.00;3.00;;;;;;;;5072486;28;45659;-58
2023/04/12 02:54:36;;;;;;;;;2.00;2.00;;;;;;;;5077012;27;45473;-59
2023/04/12 02:57:02;;;;;;;;;2.33;1.67;;;;;;;;5076899;27;45502;-59
2023/04/12 02:59:27;;;;;;;;;2.00;2.00;;;;;;;;5077327;27;45652;-59
2023/04/12 03:01:53;;;;;;;;;3.33;3.33;;;;;;;;5075579;27;45542;-59
2023/04/12 03:04:18;;;;;;;;;4.00;3.00;;;;;;;;5076909;27;45450;-59
2023/04/12 03:06:51;;;;;;;;;5.00;3.00;;;;;;;;5071117;27;45528;-59
2023/04/12 03:09:16;;;;;;;;;3.00;2.00;;;;;;;;5076904;27;45552;-59
2023/04/12 03:11:42;;;;;;;;;3.00;1.33;;;;;;;;5076645;27;46024;-59
2023/04/12 03:14:07;;;;;;;;;2.00;1.33;;;;;;;;5063650;28;45734;-59
2023/04/12 03:16:34;;;;;;;;;2.00;2.00;;;;;;;;5073640;27;45395;-59
2023/04/12 03:18:59;;;;;;;;;4.00;2.67;;;;;;;;5075713;28;45502;-59
2023/04/12 03:21:25;;;;;;;;;2.00;2.00;;;;;;;;5076765;27;45933;-59
2023/04/12 03:23:51;;;;;;;;;2.00;2.00;;;;;;;;5075450;27;45495;-59
2023/04/12 03:26:19;;;;;;;;;2.00;0.33;;;;;;;;5074862;27;45409;-59
2023/04/12 03:28:44;;;;;;;;;3.00;2.00;;;;;;;;5062786;28;45496;-59
2023/04/12 03:31:09;;;;;;;;;1.33;1.33;;;;;;;;5076452;27;45494;-59
2023/04/12 03:33:34;;;;;;;;;1.33;1.33;;;;;;;;5075780;27;45484;-59
2023/04/12 03:36:00;;;;;;;;;5.00;1.33;;;;;;;;5075592;27;45441;-59
2023/04/12 03:38:25;;;;;;;;;1.67;1.00;;;;;;;;5076795;28;45402;-59
2023/04/12 03:40:50;;;;;;;;;1.33;1.33;;;;;;;;5075510;27;46466;-59
2023/04/12 03:43:15;;;;;;;;;0.33;0.33;;;;;;;;5076720;27;45448;-59
2023/04/12 03:45:41;;;;;;;;;0.33;0.33;;;;;;;;5075196;27;45613;-59
2023/04/12 03:48:06;;;;;;;;;0.00;0.00;;;;;;;;5076422;27;45460;-59
2023/04/12 03:50:40;;;;;;;;;0.00;0.00;;;;;;;;5074643;27;45576;-59
2023/04/12 03:53:06;;;;;;;;;0.00;0.00;;;;;;;;5075486;27;45488;-59
2023/04/12 03:55:31;;;;;;;;;0.00;0.00;;;;;;;;5075400;27;45518;-59
2023/04/12 03:57:56;;;;;;;;;0.00;0.00;;;;;;;;5075527;27;45549;-59
2023/04/12 04:00:21;;;;;;;;;0.00;0.00;;;;;;;;5075495;27;46006;-59
2023/04/12 04:02:47;;;;;;;;;0.00;0.00;;;;;;;;5076472;27;45534;-59
2023/04/12 04:05:12;;;;;;;;;0.00;0.00;;;;;;;;5076580;27;45391;-59
2023/04/12 04:07:37;;;;;;;;;2.00;2.00;;;;;;;;5074795;27;45402;-59
2023/04/12 04:10:04;;;;;;;;;0.00;0.00;;;;;;;;5076244;28;46027;-59
2023/04/12 04:12:29;;;;;;;;;1.00;0.00;;;;;;;;5076045;27;45464;-59
2023/04/12 04:14:54;;;;;;;;;0.00;0.00;;;;;;;;5076221;27;45472;-59
2023/04/12 04:17:19;;;;;;;;;0.00;0.00;;;;;;;;5073392;27;45545;-59
2023/04/12 04:19:45;;;;;;;;;0.00;0.00;;;;;;;;5075976;27;46281;-59
2023/04/12 04:22:12;;;;;;;;;0.00;0.00;;;;;;;;5076061;27;45471;-59
2023/04/12 04:24:37;;;;;;;;;0.00;0.00;;;;;;;;5073548;27;45829;-59
2023/04/12 04:27:03;;;;;;;;;0.00;0.00;;;;;;;;5075082;27;45547;-59
2023/04/12 04:29:29;;;;;;;;;0.00;0.00;;;;;;;;5075624;27;45512;-59
2023/04/12 04:31:54;;;;;;;;;0.00;0.00;;;;;;;;5074252;27;45573;-59
2023/04/12 04:34:21;;;;;;;;;0.00;0.00;;;;;;;;5076059;27;45450;-59
2023/04/12 04:36:46;;;;;;;;;0.00;0.00;;;;;;;;5069882;28;45483;-59
2023/04/12 04:39:11;;;;;;;;;1.00;0.00;;;;;;;;5075253;27;46045;-59
2023/04/12 04:41:40;;;;;;;;;0.00;0.00;;;;;;;;5075587;27;45464;-59
2023/04/12 04:44:08;;;;;;;;;0.00;0.00;;;;;;;;5075859;27;45583;-59
2023/04/12 04:46:35;;;;;;;;;0.00;0.00;;;;;;;;5070371;27;45664;-60
2023/04/12 04:49:01;;;;;;;;;0.00;0.00;;;;;;;;5070625;27;45464;-57
2023/04/12 04:51:26;;;;;;;;;0.00;0.00;;;;;;;;5074588;27;45425;-57
2023/04/12 04:53:51;;;;;;;;;0.67;0.00;;;;;;;;5073953;27;45585;-58
2023/04/12 04:56:16;;;;;;;;;0.00;0.00;;;;;;;;5074262;27;45589;-57
2023/04/12 04:58:42;;;;;;;;;0.00;0.00;;;;;;;;5072663;27;45563;-58
2023/04/12 05:01:07;;;;;;;;;0.00;0.00;;;;;;;;5064294;27;45418;-57
2023/04/12 05:03:33;;;;;;;;;0.00;0.00;;;;;;;;5074723;28;45327;-58
2023/04/12 05:05:58;;;;;;;;;1.00;0.00;;;;;;;;5066785;27;45435;-60
2023/04/12 05:08:24;;;;;;;;;1.00;0.00;;;;;;;;5082665;27;46121;-58
2023/04/12 05:10:51;;;;;;;;;0.00;0.00;;;;;;;;5074139;28;45554;-58
2023/04/12 05:13:16;;;;;;;;;0.00;0.00;;;;;;;;5074050;27;45559;-57
2023/04/12 05:15:41;;;;;;;;;0.00;0.00;;;;;;;;5060395;27;45638;-57
2023/04/12 05:18:06;;;;;;;;;0.00;0.00;;;;;;;;5068661;27;45559;-60
2023/04/12 05:20:32;;;;;;;;;0.00;0.00;;;;;;;;5074828;27;45417;-60
2023/04/12 05:22:57;;;;;;;;;0.00;0.00;;;;;;;;5074462;27;45666;-60
2023/04/12 05:25:22;;;;;;;;;0.00;0.00;;;;;;;;5074216;27;45582;-60
2023/04/12 05:27:47;;;;;;;;;0.00;0.00;;;;;;;;5074066;27;45904;-60
2023/04/12 05:30:12;;;;;;;;;0.00;0.00;;;;;;;;5073422;27;45524;-57
2023/04/12 05:32:38;;;;;;;;;1.00;0.00;;;;;;;;5074653;27;45423;-58
2023/04/12 05:35:03;;;;;;;;;0.00;0.00;;;;;;;;5073941;27;45543;-60
2023/04/12 05:37:28;;;;;;;;;0.00;0.00;;;;;;;;5074216;27;46305;-60
2023/04/12 05:39:53;;;;;;;;;0.00;0.00;;;;;;;;5074019;27;45558;-57
2023/04/12 05:42:19;;;;;;;;;3.67;3.67;;;;;;;;5069355;27;45615;-58
2023/04/12 05:44:44;;;;;;;;;2.67;2.00;;;;;;;;5069603;28;45442;-60
2023/04/12 05:47:09;;;;;;;;;1.00;1.00;;;;;;;;5073428;27;45429;-61
2023/04/12 05:49:35;;;;;;;;;0.00;0.00;;;;;;;;5074497;27;45583;-61
2023/04/12 05:52:00;;;;;;;;;0.00;0.00;;;;;;;;5065257;27;45410;-61
2023/04/12 05:54:26;;;;;;;;;0.00;0.00;;;;;;;;5074483;27;45475;-60
2023/04/12 05:56:53;;;;;;;;;1.00;1.00;;;;;;;;5061876;27;45858;-65
2023/04/12 05:59:18;;;;;;;;;3.00;2.00;;;;;;;;5068690;27;45585;-61
2023/04/12 06:01:44;;;;;;;;;2.67;1.00;;;;;;;;5071675;28;45469;-64
2023/04/12 06:04:09;;;;;;;;;2.67;1.00;;;;;;;;5073086;28;45434;-67
2023/04/12 06:06:34;;;;;;;;;2.00;0.33;;;;;;;;5068645;28;45682;-66
2023/04/12 06:08:59;;;;;;;;;1.00;1.00;;;;;;;;5072415;28;45464;-58
2023/04/12 06:11:25;;;;;;;;;2.33;2.00;;;;;;;;5070366;27;45595;-60
2023/04/12 06:13:50;;;;;;;;;1.00;1.00;;;;;;;;5072642;27;45657;-62
2023/04/12 06:16:15;;;;;;;;;3.33;3.33;;;;;;;;5065956;27;45552;-57
2023/04/12 06:18:41;;;;;;;;;3.00;1.00;;;;;;;;5065878;27;45518;-57
2023/04/12 06:21:06;;;;;;;;;2.00;2.00;;;;;;;;5065947;28;45564;-56
2023/04/12 06:23:31;;;;;;;;;4.67;3.00;;;;;;;;5072969;27;45648;-59
2023/04/12 06:25:56;;;;;;;;;3.67;2.00;;;;;;;;5071715;27;45527;-59
2023/04/12 06:28:22;;;;;;;;;3.67;2.33;;;;;;;;5072898;27;45506;-63
2023/04/12 06:30:47;;;;;;;;;3.00;3.00;;;;;;;;5071975;27;45991;-61
2023/04/12 06:33:12;;;;;;;;;3.00;3.00;;;;;;;;5060518;27;45509;-59
2023/04/12 06:35:37;;;;;;;;;3.67;3.67;;;;;;;;5073095;27;45566;-60
2023/04/12 06:38:02;;;;;;;;;4.00;4.00;;;;;;;;5070517;27;45513;-60
2023/04/12 06:40:28;;;;;;;;;3.00;3.00;;;;;;;;5073395;28;45485;-61
2023/04/12 06:42:53;;;;;;;;;2.33;2.33;;;;;;;;5072105;27;45488;-60
2023/04/12 06:45:18;;;;;;;;;3.33;3.33;;;;;;;;5070545;27;45467;-61
2023/04/12 06:47:43;;;;;;;;;3.00;3.00;;;;;;;;5059580;27;45415;-63
2023/04/12 06:50:09;;;;;;;;;5.33;3.00;;;;;;;;5073598;27;45509;-61
2023/04/12 06:52:36;;;;;;;;;2.67;2.33;;;;;;;;5068684;27;45875;-61
2023/04/12 06:55:01;;;;;;;;;3.00;3.00;;;;;;;;5071027;28;45497;-61
2023/04/12 06:57:26;;;;;;;;;1.00;1.00;;;;;;;;5071242;27;46216;-61
2023/04/12 06:59:51;;;;;;;;;1.00;1.00;;;;;;;;5067245;27;45454;-61
2023/04/12 07:02:17;;;;;;;;;4.00;4.00;;;;;;;;5068146;28;45482;-61
2023/04/12 07:04:42;;;;;;;;;2.33;2.00;;;;;;;;5066428;27;45970;-63
2023/04/12 07:07:08;;;;;;;;;0.00;0.00;;;;;;;;5071812;27;45575;-66
2023/04/12 07:09:34;;;;;;;;;2.00;2.00;;;;;;;;5069124;28;45670;-65
2023/04/12 07:11:59;;;;;;;;;2.00;2.00;;;;;;;;5071472;27;45612;-63
2023/04/12 07:14:25;;;;;;;;;3.00;1.33;;;;;;;;5071207;27;45480;-64
2023/04/12 07:16:50;;;;;;;;;4.00;1.00;;;;;;;;5069639;27;45489;-64
2023/04/12 07:19:15;;;;;;;;;1.67;1.67;;;;;;;;5071054;27;45520;-62
2023/04/12 07:21:41;;;;;;;;;1.67;1.67;;;;;;;;5073030;28;45463;-54
2023/04/12 07:24:06;;;;;;;;;0.33;0.00;;;;;;;;5071613;27;45475;-55
2023/04/12 07:26:31;;;;;;;;;2.00;0.67;;;;;;;;5068427;27;45551;-60
2023/04/12 07:28:56;;;;;;;;;0.00;0.00;;;;;;;;5071139;28;45485;-58
2023/04/12 07:31:22;;;;;;;;;2.00;1.00;;;;;;;;5073034;27;45588;-58
2023/04/12 07:33:48;;;;;;;;;0.00;0.00;;;;;;;;5075534;27;45497;-58
2023/04/12 07:36:15;;;;;;;;;1.33;0.67;;;;;;;;5075437;27;45413;-58
2023/04/12 07:38:40;;;;;;;;;1.00;1.00;;;;;;;;5076230;28;45605;-61
2023/04/12 07:41:05;;;;;;;;;0.00;0.00;;;;;;;;5075755;27;45480;-64
2023/04/12 07:43:31;;;;;;;;;1.00;1.00;;;;;;;;5074509;27;46326;-65
2023/04/12 07:45:56;;;;;;;;;1.00;0.00;;;;;;;;5068870;27;45418;-59
2023/04/12 07:48:21;;;;;;;;;0.33;0.33;;;;;;;;5075920;27;45435;-59
2023/04/12 07:50:46;;;;;;;;;1.33;1.33;;;;;;;;5073349;27;45816;-59
2023/04/12 07:53:18;;;;;;;;;1.67;1.67;;;;;;;;5074530;27;45556;-64
2023/04/12 07:55:43;;;;;;;;;0.33;0.00;;;;;;;;5075860;27;45354;-61
2023/04/12 07:58:09;;;;;;;;;0.67;0.67;;;;;;;;5072705;28;45387;-61
2023/04/12 08:00:34;;;;;;;;;0.00;0.00;;;;;;;;5067458;27;45742;-61
2023/04/12 08:02:59;;;;;;;;;1.00;1.00;;;;;;;;5075187;27;46785;-62
2023/04/12 08:05:24;;;;;;;;;0.00;0.00;;;;;;;;5073601;27;45436;-68
2023/04/12 08:07:50;;;;;;;;;0.00;0.00;;;;;;;;5065342;27;45508;-66
2023/04/12 08:10:15;;;;;;;;;0.67;0.00;;;;;;;;5076105;28;45538;-67
2023/04/12 08:12:40;;;;;;;;;0.33;0.33;;;;;;;;5075428;27;46176;-67
2023/04/12 08:15:05;;;;;;;;;0.00;0.00;;;;;;;;5075615;27;45467;-66
2023/04/12 08:17:31;;;;;;;;;0.00;0.00;;;;;;;;5074732;27;45565;-69
2023/04/12 08:19:56;;;;;;;;;0.00;0.00;;;;;;;;5074496;27;45668;-66
2023/04/12 08:22:23;;;;;;;;;0.00;0.00;;;;;;;;5075605;27;45499;-66
2023/04/12 08:24:48;;;;;;;;;0.00;0.00;;;;;;;;5074691;27;45504;-67
2023/04/12 08:27:15;;;;;;;;;1.00;1.00;;;;;;;;5075153;27;45644;-58
2023/04/12 08:29:40;;;;;;;;;0.67;0.67;;;;;;;;5073429;27;45597;-62
2023/04/12 08:32:06;;;;;;;;;0.00;0.00;;;;;;;;5074400;27;46129;-68
2023/04/12 08:34:31;;;;;;;;;0.67;0.00;;;;;;;;5074222;27;45545;-63
2023/04/12 08:36:59;;;;;;;;;0.00;0.00;;;;;;;;5074004;28;45540;-65
2023/04/12 08:39:24;;;;;;;;;0.00;0.00;;;;;;;;5073218;27;45559;-61
2023/04/12 08:41:50;;;;;;;;;0.00;0.00;;;;;;;;5074064;27;45397;-61
2023/04/12 08:44:16;;;;;;;;;0.00;0.00;;;;;;;;5075135;27;45454;-62
2023/04/12 08:46:41;;;;;;;;;0.00;0.00;;;;;;;;5072402;27;45419;-59
2023/04/12 08:49:07;;;;;;;;;0.00;0.00;;;;;;;;5073189;27;45466;-60
2023/04/12 08:51:32;;;;;;;;;0.00;0.00;;;;;;;;5074676;27;45722;-63
2023/04/12 08:53:57;;;;;;;;;0.00;0.00;;;;;;;;5070459;27;45506;-63
2023/04/12 08:56:23;;;;;;;;;0.00;0.00;;;;;;;;5072192;27;45583;-63
2023/04/12 08:58:49;;;;;;;;;1.67;0.00;;;;;;;;5074832;27;45388;-62
2023/04/12 09:01:16;;;;;;;;;0.00;0.00;;;;;;;;5071812;27;46083;-62
2023/04/12 09:03:42;;;;;;;;;0.00;0.00;;;;;;;;5070644;27;46146;-62
2023/04/12 09:06:07;;;;;;;;;0.00;0.00;;;;;;;;5069489;28;45557;-63
2023/04/12 09:08:32;;;;;;;;;1.00;0.00;;;;;;;;5066120;27;45606;-62
2023/04/12 09:10:58;;;;;;;;;2.00;0.00;;;;;;;;5073104;27;46016;-61
2023/04/12 09:13:33;;;;;;;;;1.67;1.00;;;;;;;;5074587;28;45589;-62
2023/04/12 09:15:58;;;;;;;;;1.00;1.00;;;;;;;;5073306;27;45458;-62
2023/04/12 09:18:26;;;;;;;;;1.00;0.00;;;;;;;;5074401;27;45432;-60
2023/04/12 09:21:04;;;;;;;;;0.00;0.00;;;;;;;;5073784;27;45538;-63
2023/04/12 09:23:30;;;;;;;;;0.00;0.00;;;;;;;;5071718;27;45586;-64
2023/04/12 09:25:55;;;;;;;;;0.33;0.33;;;;;;;;5070964;27;45543;-65
2023/04/12 09:28:24;;;;;;;;;1.00;0.00;;;;;;;;5070806;27;45737;-66
2023/04/12 09:30:53;;;;;;;;;1.00;1.00;;;;;;;;5070554;28;46044;-65
2023/04/12 09:33:19;;;;;;;;;0.67;0.67;;;;;;;;5065670;28;45551;-63
2023/04/12 09:35:44;;;;;;;;;1.00;1.00;;;;;;;;5074310;27;45693;-63
2023/04/12 09:38:10;;;;;;;;;0.67;0.67;;;;;;;;5070965;27;45711;-64
2023/04/12 09:40:35;;;;;;;;;0.00;0.00;;;;;;;;5072957;28;45490;-62
2023/04/12 09:43:01;;;;;;;;;0.00;0.00;;;;;;;;5072961;28;45541;-61
2023/04/12 09:45:27;;;;;;;;;3.00;0.00;;;;;;;;5074598;27;45639;-63
2023/04/12 09:47:52;;;;;;;;;1.00;0.00;;;;;;;;5072909;27;45510;-60
2023/04/12 09:50:27;;;;;;;;;0.00;0.00;;;;;;;;5071670;27;47919;-67
2023/04/12 09:52:56;;;;;;;;;0.00;0.00;;;;;;;;5071882;28;45732;-62
2023/04/12 09:55:24;;;;;;;;;1.00;1.00;;;;;;;;5070258;28;45596;-67
2023/04/12 09:57:50;;;;;;;;;0.00;0.00;;;;;;;;5073839;27;45568;-65
2023/04/12 10:00:16;;;;;;;;;0.00;0.00;;;;;;;;5070339;28;45466;-63
2023/04/12 10:02:42;;;;;;;;;0.00;0.00;;;;;;;;5072463;27;45508;-61
2023/04/12 10:05:09;;;;;;;;;1.00;1.00;;;;;;;;5073628;28;45456;-60
2023/04/12 10:07:36;;;;;;;;;0.00;0.00;;;;;;;;5064708;28;45503;-57
2023/04/12 10:10:03;;;;;;;;;0.00;0.00;;;;;;;;5068605;28;47220;-54
2023/04/12 10:12:28;;;;;;;;;0.33;0.33;;;;;;;;5072187;28;45514;-58
2023/04/12 10:14:54;;;;;;;;;2.00;1.00;;;;;;;;5073435;28;45766;-57
2023/04/12 10:17:21;;;;;;;;;0.00;0.00;;;;;;;;5072102;27;45654;-58
2023/04/12 10:19:47;;;;;;;;;1.67;1.00;;;;;;;;5067977;27;47966;-57
2023/04/12 10:22:12;;;;;;;;;0.00;0.00;;;;;;;;5073263;27;45532;-58
2023/04/12 10:24:38;;;;;;;;;0.00;0.00;;;;;;;;5073484;28;45410;-58
2023/04/12 10:27:04;;;;;;;;;0.00;0.00;;;;;;;;5072175;27;45614;-58
2023/04/12 10:29:35;;;;;;;;;1.67;1.67;;;;;;;;5064227;28;46302;-59
2023/04/12 10:32:21;;;;;;;;;1.00;1.00;;;;;;;;5066426;27;45597;-60
2023/04/12 10:34:51;;;;;;;;;1.00;0.67;;;;;;;;5069528;27;45543;-57
2023/04/12 10:37:16;;;;;;;;;1.00;0.67;;;;;;;;5067852;27;45674;-58
2023/04/12 10:39:42;;;;;;;;;0.00;0.00;;;;;;;;5069661;28;46127;-59
2023/04/12 10:42:18;;;;;;;;;1.33;1.33;;;;;;;;5072627;28;45422;-59
2023/04/12 10:44:43;;;;;;;;;1.33;1.00;;;;;;;;5072923;27;45555;-60
2023/04/12 10:47:10;;;;;;;;;0.00;0.00;;;;;;;;5072766;27;45466;-59
2023/04/12 10:49:35;;;;;;;;;1.00;1.00;;;;;;;;5071397;27;46499;-59
2023/04/12 10:52:03;;;;;;;;;0.00;0.00;;;;;;;;5072211;28;45527;-59
2023/04/12 10:54:28;;;;;;;;;1.00;0.00;;;;;;;;5072869;27;45547;-59
2023/04/12 10:56:54;;;;;;;;;1.00;1.00;;;;;;;;5072770;27;45429;-60
2023/04/12 10:59:19;;;;;;;;;1.67;0.00;;;;;;;;5071460;27;45907;-60
2023/04/12 11:02:03;;;;;;;;;1.00;1.00;;;;;;;;5062337;28;45602;-65
2023/04/12 11:04:28;;;;;;;;;2.00;2.00;;;;;;;;5068436;27;45487;-60
2023/04/12 11:07:02;;;;;;;;;50.75;42.00;;;;;;;;5069132;27;45626;-60
2023/04/12 11:09:33;;;;;;;;;2.67;2.67;;;;;;;;5076020;27;46202;-63
2023/04/12 11:12:04;;;;;;;;;22.67;18.67;;;;;;;;5072988;27;46380;-60
2023/04/12 11:14:48;;;;;;;;;2.33;2.33;;;;;;;;5074089;27;45538;-65
2023/04/12 11:17:14;;;;;;;;;2.00;2.00;;;;;;;;5076084;27;45508;-60
2023/04/12 11:19:43;;;;;;;;;1.67;1.33;;;;;;;;5069390;27;45481;-60
2023/04/12 11:22:13;;;;;;;;;1.00;1.00;;;;;;;;5072658;27;45417;-60
2023/04/12 11:24:38;;;;;;;;;1.00;1.00;;;;;;;;5072038;27;45565;-60
2023/04/12 11:27:04;;;;;;;;;1.00;1.00;;;;;;;;5067017;27;45525;-58
2023/04/12 11:29:31;;;;;;;;;1.00;1.00;;;;;;;;5070498;27;45903;-57
2023/04/12 11:31:56;;;;;;;;;3.00;2.00;;;;;;;;5073999;27;45730;-60
2023/04/12 11:34:22;;;;;;;;;0.33;0.33;;;;;;;;5071351;27;45724;-60
2023/04/12 11:36:50;;;;;;;;;0.33;0.33;;;;;;;;5073821;27;45656;-60
2023/04/12 11:39:17;;;;;;;;;1.67;1.00;;;;;;;;5073217;27;46603;-59
2023/04/12 11:41:43;;;;;;;;;2.00;0.00;;;;;;;;5075953;27;46172;-60
2023/04/12 11:44:08;;;;;;;;;0.67;0.67;;;;;;;;5075748;27;45532;-57
2023/04/12 11:46:34;;;;;;;;;1.00;1.00;;;;;;;;5074466;27;45682;-55
2023/04/12 11:48:59;;;;;;;;;0.33;0.33;;;;;;;;5075854;27;46109;-58
2023/04/12 11:51:26;;;;;;;;;0.00;0.00;;;;;;;;5076559;28;45595;-59
2023/04/12 11:53:53;;;;;;;;;1.67;0.33;;;;;;;;5076634;27;45506;-57
2023/04/12 11:56:18;;;;;;;;;2.00;2.00;;;;;;;;5074413;27;45645;-57
2023/04/12 11:58:45;;;;;;;;;2.00;2.00;;;;;;;;5075862;27;46234;-59
2023/04/12 12:01:11;;;;;;;;;1.00;1.00;;;;;;;;5074167;27;45538;-60
2023/04/12 12:03:36;;;;;;;;;0.00;0.00;;;;;;;;5076202;28;45418;-59
2023/04/12 12:06:02;;;;;;;;;0.33;0.33;;;;;;;;5074088;27;45579;-65
2023/04/12 12:08:28;;;;;;;;;1.00;0.33;;;;;;;;5075803;27;45522;-63
2023/04/12 12:10:53;;;;;;;;;0.67;0.67;;;;;;;;5074575;27;45496;-61
2023/04/12 12:13:18;;;;;;;;;2.00;1.00;;;;;;;;5065276;28;45490;-61
2023/04/12 12:15:46;;;;;;;;;0.00;0.00;;;;;;;;5075018;27;45491;-60
2023/04/12 12:18:11;;;;;;;;;3.00;1.00;;;;;;;;5068464;28;46244;-64
2023/04/12 12:20:41;;;;;;;;;1.00;0.00;;;;;;;;5078489;27;45454;-69
2023/04/12 12:23:06;;;;;;;;;1.67;0.67;;;;;;;;5077829;27;45477;-67
2023/04/12 12:25:31;;;;;;;;;1.00;1.00;;;;;;;;5073558;27;45537;-67
2023/04/12 12:27:57;;;;;;;;;0.33;0.33;;;;;;;;5071825;27;45481;-71
2023/04/12 12:30:23;;;;;;;;;0.00;0.00;;;;;;;;5073515;27;45550;-67
2023/04/12 12:32:49;;;;;;;;;0.00;0.00;;;;;;;;5073508;27;45735;-66
2023/04/12 12:35:14;;;;;;;;;0.00;0.00;;;;;;;;5075705;27;45519;-65
2023/04/12 12:37:54;;;;;;;;;0.00;0.00;;;;;;;;5073840;27;45516;-64
2023/04/12 12:40:28;;;;;;;;;1.00;0.00;;;;;;;;5072536;27;45448;-62
2023/04/12 12:42:54;;;;;;;;;0.00;0.00;;;;;;;;5074141;28;45429;-64
2023/04/12 12:45:20;;;;;;;;;0.33;0.00;;;;;;;;5073825;27;45678;-63
2023/04/12 12:47:46;;;;;;;;;1.33;1.00;;;;;;;;5073583;27;45513;-67
2023/04/12 12:50:13;;;;;;;;;0.00;0.00;;;;;;;;5075315;27;45389;-61
2023/04/12 12:52:38;;;;;;;;;0.00;0.00;;;;;;;;5073736;28;45575;-66
2023/04/12 12:55:03;;;;;;;;;0.00;0.00;;;;;;;;5075405;27;45685;-66
2023/04/12 12:57:29;;;;;;;;;0.00;0.00;;;;;;;;5072843;27;46311;-66
2023/04/12 12:59:54;;;;;;;;;0.00;0.00;;;;;;;;5072082;27;45567;-70
2023/04/12 13:02:19;;;;;;;;;0.00;0.00;;;;;;;;5073224;27;45512;-66
2023/04/12 13:04:44;;;;;;;;;0.00;0.00;;;;;;;;5077665;27;45734;-67
2023/04/12 13:07:09;;;;;;;;;0.33;0.33;;;;;;;;5078104;27;46100;-69
2023/04/12 13:09:35;;;;;;;;;0.00;0.00;;;;;;;;5073351;27;45389;-67
2023/04/12 13:12:01;;;;;;;;;0.00;0.00;;;;;;;;5074898;27;45523;-60
2023/04/12 13:14:26;;;;;;;;;1.00;1.00;;;;;;;;5074898;27;45559;-62
2023/04/12 13:16:51;;;;;;;;;0.33;0.33;;;;;;;;5068003;27;47271;-65
2023/04/12 13:19:16;;;;;;;;;0.00;0.00;;;;;;;;5071092;28;45486;-66
2023/04/12 13:21:42;;;;;;;;;0.00;0.00;;;;;;;;5069924;27;45427;-68
2023/04/12 13:24:08;;;;;;;;;0.67;0.67;;;;;;;;5074859;27;45647;-66
2023/04/12 13:26:33;;;;;;;;;0.00;0.00;;;;;;;;5071645;28;45499;-63
2023/04/12 13:28:59;;;;;;;;;0.00;0.00;;;;;;;;5073620;27;45502;-74
2023/04/12 13:31:24;;;;;;;;;1.00;1.00;;;;;;;;5069645;27;45530;-66
2023/04/12 13:33:50;;;;;;;;;0.00;0.00;;;;;;;;5067710;27;45454;-60
2023/04/12 13:36:15;;;;;;;;;2.00;0.00;;;;;;;;5073002;27;45508;-66
2023/04/12 13:38:40;;;;;;;;;1.00;0.00;;;;;;;;5074326;27;45583;-69
2023/04/12 13:41:05;;;;;;;;;0.00;0.00;;;;;;;;5070943;27;45970;-60
2023/04/12 13:43:30;;;;;;;;;0.00;0.00;;;;;;;;5071585;27;45525;-66
2023/04/12 13:45:58;;;;;;;;;1.00;0.00;;;;;;;;5073555;27;45504;-65
2023/04/12 13:48:23;;;;;;;;;0.00;0.00;;;;;;;;5071388;28;45601;-63
2023/04/12 13:50:48;;;;;;;;;1.00;1.00;;;;;;;;5072866;28;45457;-66
2023/04/12 13:53:14;;;;;;;;;0.00;0.00;;;;;;;;5072755;27;45385;-67
2023/04/12 13:55:39;;;;;;;;;1.00;1.00;;;;;;;;5071265;27;47108;-67
2023/04/12 13:58:04;;;;;;;;;2.00;1.00;;;;;;;;5073059;28;45424;-71
2023/04/12 14:00:29;;;;;;;;;2.00;1.00;;;;;;;;5071772;28;45599;-69
2023/04/12 14:02:55;;;;;;;;;0.00;0.00;;;;;;;;5072651;27;45500;-70
2023/04/12 14:05:20;;;;;;;;;0.00;0.00;;;;;;;;5074005;28;45523;-72
2023/04/12 14:07:48;;;;;;;;;0.00;0.00;;;;;;;;5060635;27;45612;-72
2023/04/12 14:10:13;;;;;;;;;0.00;0.00;;;;;;;;5074160;27;45505;-62
2023/04/12 14:12:39;;;;;;;;;0.00;0.00;;;;;;;;5072387;28;45535;-66
2023/04/12 14:15:04;;;;;;;;;0.00;0.00;;;;;;;;5068549;27;45924;-62
2023/04/12 14:17:31;;;;;;;;;0.00;0.00;;;;;;;;5074005;27;45440;-67
2023/04/12 14:19:56;;;;;;;;;1.33;1.33;;;;;;;;5066321;28;45536;-64
2023/04/12 14:22:21;;;;;;;;;0.00;0.00;;;;;;;;5065982;28;45557;-64
2023/04/12 14:24:46;;;;;;;;;1.00;0.00;;;;;;;;5072750;27;46410;-66
2023/04/12 14:27:12;;;;;;;;;1.00;1.00;;;;;;;;5071016;27;45476;-65
2023/04/12 14:29:38;;;;;;;;;0.00;0.00;;;;;;;;5071777;27;45590;-64
2023/04/12 14:32:03;;;;;;;;;0.00;0.00;;;;;;;;5067555;27;45642;-68
2023/04/12 14:34:29;;;;;;;;;0.00;0.00;;;;;;;;5068176;28;46296;-65
2023/04/12 14:36:55;;;;;;;;;0.00;0.00;;;;;;;;5068004;27;45625;-66